sensor_id;sensor_type;location;lat;lon;timestamp;P1;durP1;ratioP1;P2;durP2;ratioP2
51190;SDS011;37253;48.736;9.294;2024-01-06T00:00:09;3.50;;;1.63;;
51190;SDS011;37253;48.736;9.294;2024-01-06T00:02:10;2.75;;;1.52;;
51190;SDS011;37253;48.736;9.294;2024-01-06T00:04:11;3.00;;;1.27;;
51190;SDS011;37253;48.736;9.294;2024-01-06T00:06:12;2.35;;;1.27;;
51190;SDS011;37253;48.736;9.294;2024-01-06T00:08:13;2.97;;;1.33;;
51190;SDS011;37253;48.736;9.294;2024-01-06T00:10:14;2.65;;;1.60;;
51190;SDS011;37253;48.736;9.294;2024-01-06T00:12:14;2.03;;;1.30;;
51190;SDS011;37253;48.736;9.294;2024-01-06T00:14:14;2.38;;;1.50;;
51190;SDS011;37253;48.736;9.294;2024-01-06T00:16:18;3.70;;;1.30;;
51190;SDS011;37253;48.736;9.294;2024-01-06T00:18:19;2.33;;;1.50;;
51190;SDS011;37253;48.736;9.294;2024-01-06T00:20:19;2.10;;;1.40;;
51190;SDS011;37253;48.736;9.294;2024-01-06T00:22:20;3.08;;;1.30;;
51190;SDS011;37253;48.736;9.294;2024-01-06T00:24:20;3.35;;;1.27;;
51190;SDS011;37253;48.736;9.294;2024-01-06T00:26:20;2.55;;;1.30;;
51190;SDS011;37253;48.736;9.294;2024-01-06T00:28:21;1.90;;;1.20;;
51190;SDS011;37253;48.736;9.294;2024-01-06T00:30:21;3.17;;;1.52;;
51190;SDS011;37253;48.736;9.294;2024-01-06T00:32:21;1.90;;;1.30;;
51190;SDS011;37253;48.736;9.294;2024-01-06T00:34:22;2.65;;;1.40;;
51190;SDS011;37253;48.736;9.294;2024-01-06T00:36:22;2.20;;;1.42;;
51190;SDS011;37253;48.736;9.294;2024-01-06T00:38:22;1.70;;;1.20;;
51190;SDS011;37253;48.736;9.294;2024-01-06T00:40:23;1.92;;;1.40;;
51190;SDS011;37253;48.736;9.294;2024-01-06T00:42:23;2.63;;;1.17;;
51190;SDS011;37253;48.736;9.294;2024-01-06T00:44:23;2.33;;;1.10;;
51190;SDS011;37253;48.736;9.294;2024-01-06T00:46:23;2.60;;;1.10;;
51190;SDS011;37253;48.736;9.294;2024-01-06T00:48:24;2.10;;;1.13;;
51190;SDS011;37253;48.736;9.294;2024-01-06T00:50:24;2.47;;;1.15;;
51190;SDS011;37253;48.736;9.294;2024-01-06T00:52:24;2.28;;;1.30;;
51190;SDS011;37253;48.736;9.294;2024-01-06T00:54:25;2.95;;;1.48;;
51190;SDS011;37253;48.736;9.294;2024-01-06T00:56:25;2.47;;;1.10;;
51190;SDS011;37253;48.736;9.294;2024-01-06T00:58:27;1.92;;;1.20;;
51190;SDS011;37253;48.736;9.294;2024-01-06T01:00:27;1.38;;;1.10;;
51190;SDS011;37253;48.736;9.294;2024-01-06T01:02:27;2.33;;;1.23;;
51190;SDS011;37253;48.736;9.294;2024-01-06T01:04:27;1.75;;;1.27;;
51190;SDS011;37253;48.736;9.294;2024-01-06T01:06:28;1.50;;;1.20;;
51190;SDS011;37253;48.736;9.294;2024-01-06T01:08:28;2.67;;;1.20;;
51190;SDS011;37253;48.736;9.294;2024-01-06T01:10:28;3.63;;;1.33;;
51190;SDS011;37253;48.736;9.294;2024-01-06T01:12:29;1.52;;;1.05;;
51190;SDS011;37253;48.736;9.294;2024-01-06T01:14:29;2.70;;;1.30;;
51190;SDS011;37253;48.736;9.294;2024-01-06T01:16:29;2.15;;;1.10;;
51190;SDS011;37253;48.736;9.294;2024-01-06T01:18:32;1.77;;;1.10;;
51190;SDS011;37253;48.736;9.294;2024-01-06T01:20:32;1.67;;;1.05;;
51190;SDS011;37253;48.736;9.294;2024-01-06T01:22:32;1.52;;;0.90;;
51190;SDS011;37253;48.736;9.294;2024-01-06T01:24:33;2.42;;;1.15;;
51190;SDS011;37253;48.736;9.294;2024-01-06T01:26:33;2.13;;;1.20;;
51190;SDS011;37253;48.736;9.294;2024-01-06T01:28:33;2.05;;;0.90;;
51190;SDS011;37253;48.736;9.294;2024-01-06T01:30:34;4.03;;;1.10;;
51190;SDS011;37253;48.736;9.294;2024-01-06T01:32:35;1.52;;;1.00;;
51190;SDS011;37253;48.736;9.294;2024-01-06T01:34:35;1.10;;;0.98;;
51190;SDS011;37253;48.736;9.294;2024-01-06T01:36:35;2.17;;;1.00;;
51190;SDS011;37253;48.736;9.294;2024-01-06T01:38:35;1.52;;;1.17;;
51190;SDS011;37253;48.736;9.294;2024-01-06T01:40:36;1.00;;;0.80;;
51190;SDS011;37253;48.736;9.294;2024-01-06T01:42:36;3.38;;;1.00;;
51190;SDS011;37253;48.736;9.294;2024-01-06T01:44:37;1.45;;;0.90;;
51190;SDS011;37253;48.736;9.294;2024-01-06T01:46:37;1.85;;;1.00;;
51190;SDS011;37253;48.736;9.294;2024-01-06T01:48:39;1.73;;;0.90;;
51190;SDS011;37253;48.736;9.294;2024-01-06T01:50:39;1.75;;;0.90;;
51190;SDS011;37253;48.736;9.294;2024-01-06T01:52:40;1.98;;;1.00;;
51190;SDS011;37253;48.736;9.294;2024-01-06T01:54:41;2.38;;;0.80;;
51190;SDS011;37253;48.736;9.294;2024-01-06T01:56:42;0.95;;;0.80;;
51190;SDS011;37253;48.736;9.294;2024-01-06T01:58:42;1.27;;;1.00;;
51190;SDS011;37253;48.736;9.294;2024-01-06T02:00:43;1.17;;;0.95;;
51190;SDS011;37253;48.736;9.294;2024-01-06T02:02:43;1.90;;;0.90;;
51190;SDS011;37253;48.736;9.294;2024-01-06T02:04:44;1.60;;;0.90;;
51190;SDS011;37253;48.736;9.294;2024-01-06T02:06:45;1.15;;;0.88;;
51190;SDS011;37253;48.736;9.294;2024-01-06T02:08:45;1.10;;;0.80;;
51190;SDS011;37253;48.736;9.294;2024-01-06T02:10:46;1.10;;;0.80;;
51190;SDS011;37253;48.736;9.294;2024-01-06T02:12:46;1.25;;;0.90;;
51190;SDS011;37253;48.736;9.294;2024-01-06T02:14:46;1.33;;;0.80;;
51190;SDS011;37253;48.736;9.294;2024-01-06T02:16:46;1.27;;;0.90;;
51190;SDS011;37253;48.736;9.294;2024-01-06T02:18:47;1.98;;;0.80;;
51190;SDS011;37253;48.736;9.294;2024-01-06T02:20:47;1.10;;;0.90;;
51190;SDS011;37253;48.736;9.294;2024-01-06T02:22:49;1.13;;;0.75;;
51190;SDS011;37253;48.736;9.294;2024-01-06T02:24:49;1.58;;;0.90;;
51190;SDS011;37253;48.736;9.294;2024-01-06T02:26:50;1.85;;;0.90;;
51190;SDS011;37253;48.736;9.294;2024-01-06T02:28:50;1.55;;;1.00;;
51190;SDS011;37253;48.736;9.294;2024-01-06T02:30:50;1.50;;;0.82;;
51190;SDS011;37253;48.736;9.294;2024-01-06T02:32:51;1.08;;;0.80;;
51190;SDS011;37253;48.736;9.294;2024-01-06T02:34:51;1.52;;;0.90;;
51190;SDS011;37253;48.736;9.294;2024-01-06T02:36:51;2.53;;;1.00;;
51190;SDS011;37253;48.736;9.294;2024-01-06T02:38:52;1.92;;;0.80;;
51190;SDS011;37253;48.736;9.294;2024-01-06T02:40:52;1.75;;;0.90;;
51190;SDS011;37253;48.736;9.294;2024-01-06T02:42:52;1.63;;;0.80;;
51190;SDS011;37253;48.736;9.294;2024-01-06T02:44:53;1.10;;;0.73;;
51190;SDS011;37253;48.736;9.294;2024-01-06T02:46:53;1.73;;;0.80;;
51190;SDS011;37253;48.736;9.294;2024-01-06T02:48:54;2.15;;;1.10;;
51190;SDS011;37253;48.736;9.294;2024-01-06T02:50:54;0.80;;;0.73;;
51190;SDS011;37253;48.736;9.294;2024-01-06T02:52:54;1.98;;;0.98;;
51190;SDS011;37253;48.736;9.294;2024-01-06T02:54:55;0.80;;;0.73;;
51190;SDS011;37253;48.736;9.294;2024-01-06T02:56:55;1.45;;;0.80;;
51190;SDS011;37253;48.736;9.294;2024-01-06T02:58:55;2.05;;;1.00;;
51190;SDS011;37253;48.736;9.294;2024-01-06T03:00:56;0.93;;;0.80;;
51190;SDS011;37253;48.736;9.294;2024-01-06T03:02:56;1.80;;;0.90;;
51190;SDS011;37253;48.736;9.294;2024-01-06T03:04:56;1.45;;;0.70;;
51190;SDS011;37253;48.736;9.294;2024-01-06T03:06:57;0.82;;;0.70;;
51190;SDS011;37253;48.736;9.294;2024-01-06T03:08:57;1.83;;;0.80;;
51190;SDS011;37253;48.736;9.294;2024-01-06T03:10:57;1.00;;;0.82;;
51190;SDS011;37253;48.736;9.294;2024-01-06T03:12:58;1.45;;;0.80;;
51190;SDS011;37253;48.736;9.294;2024-01-06T03:14:58;1.00;;;0.70;;
51190;SDS011;37253;48.736;9.294;2024-01-06T03:16:58;1.20;;;0.75;;
51190;SDS011;37253;48.736;9.294;2024-01-06T03:18:58;0.80;;;0.60;;
51190;SDS011;37253;48.736;9.294;2024-01-06T03:20:59;0.73;;;0.65;;
51190;SDS011;37253;48.736;9.294;2024-01-06T03:22:59;1.55;;;0.80;;
51190;SDS011;37253;48.736;9.294;2024-01-06T03:24:59;1.45;;;0.90;;
51190;SDS011;37253;48.736;9.294;2024-01-06T03:27:00;2.05;;;0.68;;
51190;SDS011;37253;48.736;9.294;2024-01-06T03:29:00;0.90;;;0.63;;
51190;SDS011;37253;48.736;9.294;2024-01-06T03:31:02;1.10;;;0.70;;
51190;SDS011;37253;48.736;9.294;2024-01-06T03:33:03;1.42;;;0.80;;
51190;SDS011;37253;48.736;9.294;2024-01-06T03:35:03;1.80;;;0.70;;
51190;SDS011;37253;48.736;9.294;2024-01-06T03:37:06;0.95;;;0.68;;
51190;SDS011;37253;48.736;9.294;2024-01-06T03:39:06;1.45;;;0.80;;
51190;SDS011;37253;48.736;9.294;2024-01-06T03:41:07;1.75;;;0.90;;
51190;SDS011;37253;48.736;9.294;2024-01-06T03:43:07;2.15;;;0.90;;
51190;SDS011;37253;48.736;9.294;2024-01-06T03:45:08;1.13;;;0.60;;
51190;SDS011;37253;48.736;9.294;2024-01-06T03:47:08;1.10;;;0.70;;
51190;SDS011;37253;48.736;9.294;2024-01-06T03:49:08;2.88;;;0.70;;
51190;SDS011;37253;48.736;9.294;2024-01-06T03:51:09;1.08;;;0.70;;
51190;SDS011;37253;48.736;9.294;2024-01-06T03:53:10;1.00;;;0.60;;
51190;SDS011;37253;48.736;9.294;2024-01-06T03:55:10;1.27;;;0.70;;
51190;SDS011;37253;48.736;9.294;2024-01-06T03:57:10;1.25;;;0.60;;
51190;SDS011;37253;48.736;9.294;2024-01-06T03:59:11;1.10;;;0.75;;
51190;SDS011;37253;48.736;9.294;2024-01-06T04:01:11;0.82;;;0.60;;
51190;SDS011;37253;48.736;9.294;2024-01-06T04:03:11;1.23;;;0.60;;
51190;SDS011;37253;48.736;9.294;2024-01-06T04:05:12;0.88;;;0.50;;
51190;SDS011;37253;48.736;9.294;2024-01-06T04:07:12;1.15;;;0.60;;
51190;SDS011;37253;48.736;9.294;2024-01-06T04:09:13;1.08;;;0.70;;
51190;SDS011;37253;48.736;9.294;2024-01-06T04:11:13;4.10;;;0.70;;
51190;SDS011;37253;48.736;9.294;2024-01-06T04:13:14;0.95;;;0.70;;
51190;SDS011;37253;48.736;9.294;2024-01-06T04:15:15;1.65;;;0.65;;
51190;SDS011;37253;48.736;9.294;2024-01-06T04:17:16;1.23;;;0.60;;
51190;SDS011;37253;48.736;9.294;2024-01-06T04:19:16;0.98;;;0.70;;
51190;SDS011;37253;48.736;9.294;2024-01-06T04:21:16;0.90;;;0.60;;
51190;SDS011;37253;48.736;9.294;2024-01-06T04:23:17;0.85;;;0.60;;
51190;SDS011;37253;48.736;9.294;2024-01-06T04:25:17;1.08;;;0.68;;
51190;SDS011;37253;48.736;9.294;2024-01-06T04:27:17;1.25;;;0.60;;
51190;SDS011;37253;48.736;9.294;2024-01-06T04:29:18;1.65;;;0.70;;
51190;SDS011;37253;48.736;9.294;2024-01-06T04:31:18;0.80;;;0.60;;
51190;SDS011;37253;48.736;9.294;2024-01-06T04:33:18;1.13;;;0.50;;
51190;SDS011;37253;48.736;9.294;2024-01-06T04:35:19;1.23;;;0.60;;
51190;SDS011;37253;48.736;9.294;2024-01-06T04:37:20;1.02;;;0.73;;
51190;SDS011;37253;48.736;9.294;2024-01-06T04:39:20;1.00;;;0.60;;
51190;SDS011;37253;48.736;9.294;2024-01-06T04:41:20;1.30;;;0.60;;
51190;SDS011;37253;48.736;9.294;2024-01-06T04:43:21;1.45;;;0.80;;
51190;SDS011;37253;48.736;9.294;2024-01-06T04:45:21;1.48;;;0.77;;
51190;SDS011;37253;48.736;9.294;2024-01-06T04:47:23;0.77;;;0.57;;
51190;SDS011;37253;48.736;9.294;2024-01-06T04:49:24;0.75;;;0.60;;
51190;SDS011;37253;48.736;9.294;2024-01-06T04:51:25;0.63;;;0.50;;
51190;SDS011;37253;48.736;9.294;2024-01-06T04:53:25;1.63;;;0.50;;
51190;SDS011;37253;48.736;9.294;2024-01-06T04:55:25;1.30;;;0.63;;
51190;SDS011;37253;48.736;9.294;2024-01-06T04:57:26;1.52;;;0.60;;
51190;SDS011;37253;48.736;9.294;2024-01-06T04:59:26;1.02;;;0.70;;
51190;SDS011;37253;48.736;9.294;2024-01-06T05:01:26;1.65;;;0.80;;
51190;SDS011;37253;48.736;9.294;2024-01-06T05:03:27;1.90;;;0.50;;
51190;SDS011;37253;48.736;9.294;2024-01-06T05:05:27;0.77;;;0.50;;
51190;SDS011;37253;48.736;9.294;2024-01-06T05:07:27;0.70;;;0.60;;
51190;SDS011;37253;48.736;9.294;2024-01-06T05:09:28;0.77;;;0.60;;
51190;SDS011;37253;48.736;9.294;2024-01-06T05:11:28;2.35;;;0.70;;
51190;SDS011;37253;48.736;9.294;2024-01-06T05:13:28;1.88;;;0.60;;
51190;SDS011;37253;48.736;9.294;2024-01-06T05:15:29;0.80;;;0.60;;
51190;SDS011;37253;48.736;9.294;2024-01-06T05:17:29;1.10;;;0.60;;
51190;SDS011;37253;48.736;9.294;2024-01-06T05:19:31;0.63;;;0.55;;
51190;SDS011;37253;48.736;9.294;2024-01-06T05:21:31;1.25;;;0.70;;
51190;SDS011;37253;48.736;9.294;2024-01-06T05:23:32;1.20;;;0.68;;
51190;SDS011;37253;48.736;9.294;2024-01-06T05:25:32;1.48;;;0.50;;
51190;SDS011;37253;48.736;9.294;2024-01-06T05:27:33;0.75;;;0.52;;
51190;SDS011;37253;48.736;9.294;2024-01-06T05:29:33;1.33;;;0.60;;
51190;SDS011;37253;48.736;9.294;2024-01-06T05:31:33;0.63;;;0.43;;
51190;SDS011;37253;48.736;9.294;2024-01-06T05:33:33;1.15;;;0.55;;
51190;SDS011;37253;48.736;9.294;2024-01-06T05:35:34;0.73;;;0.50;;
51190;SDS011;37253;48.736;9.294;2024-01-06T05:37:34;0.70;;;0.60;;
51190;SDS011;37253;48.736;9.294;2024-01-06T05:39:36;0.75;;;0.40;;
51190;SDS011;37253;48.736;9.294;2024-01-06T05:41:39;2.22;;;0.60;;
51190;SDS011;37253;48.736;9.294;2024-01-06T05:43:39;0.95;;;0.43;;
51190;SDS011;37253;48.736;9.294;2024-01-06T05:45:39;0.95;;;0.70;;
51190;SDS011;37253;48.736;9.294;2024-01-06T05:47:41;0.70;;;0.52;;
51190;SDS011;37253;48.736;9.294;2024-01-06T05:49:42;2.90;;;0.55;;
51190;SDS011;37253;48.736;9.294;2024-01-06T05:51:44;0.40;;;0.40;;
51190;SDS011;37253;48.736;9.294;2024-01-06T05:53:45;1.05;;;0.50;;
51190;SDS011;37253;48.736;9.294;2024-01-06T05:55:45;0.90;;;0.60;;
51190;SDS011;37253;48.736;9.294;2024-01-06T05:57:45;2.10;;;0.50;;
51190;SDS011;37253;48.736;9.294;2024-01-06T05:59:46;1.05;;;0.50;;
51190;SDS011;37253;48.736;9.294;2024-01-06T06:01:46;0.77;;;0.52;;
51190;SDS011;37253;48.736;9.294;2024-01-06T06:03:47;1.00;;;0.60;;
51190;SDS011;37253;48.736;9.294;2024-01-06T06:05:47;0.80;;;0.60;;
51190;SDS011;37253;48.736;9.294;2024-01-06T06:07:48;0.90;;;0.50;;
51190;SDS011;37253;48.736;9.294;2024-01-06T06:09:48;1.08;;;0.60;;
51190;SDS011;37253;48.736;9.294;2024-01-06T06:11:48;0.55;;;0.50;;
51190;SDS011;37253;48.736;9.294;2024-01-06T06:13:49;0.82;;;0.50;;
51190;SDS011;37253;48.736;9.294;2024-01-06T06:15:49;0.50;;;0.40;;
51190;SDS011;37253;48.736;9.294;2024-01-06T06:17:49;0.55;;;0.40;;
51190;SDS011;37253;48.736;9.294;2024-01-06T06:19:50;1.17;;;0.50;;
51190;SDS011;37253;48.736;9.294;2024-01-06T06:21:50;1.33;;;0.50;;
51190;SDS011;37253;48.736;9.294;2024-01-06T06:23:50;0.70;;;0.40;;
51190;SDS011;37253;48.736;9.294;2024-01-06T06:25:51;1.13;;;0.60;;
51190;SDS011;37253;48.736;9.294;2024-01-06T06:27:51;0.40;;;0.30;;
51190;SDS011;37253;48.736;9.294;2024-01-06T06:29:51;3.35;;;0.47;;
51190;SDS011;37253;48.736;9.294;2024-01-06T06:31:52;0.63;;;0.50;;
51190;SDS011;37253;48.736;9.294;2024-01-06T06:33:52;0.90;;;0.50;;
51190;SDS011;37253;48.736;9.294;2024-01-06T06:35:52;1.48;;;0.50;;
51190;SDS011;37253;48.736;9.294;2024-01-06T06:37:53;2.03;;;0.50;;
51190;SDS011;37253;48.736;9.294;2024-01-06T06:39:53;1.42;;;0.43;;
51190;SDS011;37253;48.736;9.294;2024-01-06T06:41:53;0.50;;;0.40;;
51190;SDS011;37253;48.736;9.294;2024-01-06T06:43:54;0.73;;;0.40;;
51190;SDS011;37253;48.736;9.294;2024-01-06T06:45:54;1.00;;;0.40;;
51190;SDS011;37253;48.736;9.294;2024-01-06T06:47:57;0.75;;;0.47;;
51190;SDS011;37253;48.736;9.294;2024-01-06T06:49:58;0.60;;;0.50;;
51190;SDS011;37253;48.736;9.294;2024-01-06T06:51:58;0.75;;;0.50;;
51190;SDS011;37253;48.736;9.294;2024-01-06T06:53:58;1.17;;;0.50;;
51190;SDS011;37253;48.736;9.294;2024-01-06T06:55:59;0.40;;;0.40;;
51190;SDS011;37253;48.736;9.294;2024-01-06T06:57:59;0.88;;;0.52;;
51190;SDS011;37253;48.736;9.294;2024-01-06T06:59:59;0.82;;;0.40;;
51190;SDS011;37253;48.736;9.294;2024-01-06T07:02:00;0.90;;;0.50;;
51190;SDS011;37253;48.736;9.294;2024-01-06T07:04:00;1.17;;;0.47;;
51190;SDS011;37253;48.736;9.294;2024-01-06T07:06:02;0.95;;;0.55;;
51190;SDS011;37253;48.736;9.294;2024-01-06T07:08:02;0.47;;;0.35;;
51190;SDS011;37253;48.736;9.294;2024-01-06T07:10:03;1.33;;;0.50;;
51190;SDS011;37253;48.736;9.294;2024-01-06T07:12:05;0.60;;;0.50;;
51190;SDS011;37253;48.736;9.294;2024-01-06T07:14:05;0.95;;;0.40;;
51190;SDS011;37253;48.736;9.294;2024-01-06T07:16:05;0.68;;;0.40;;
51190;SDS011;37253;48.736;9.294;2024-01-06T07:18:06;0.50;;;0.40;;
51190;SDS011;37253;48.736;9.294;2024-01-06T07:20:07;1.30;;;0.40;;
51190;SDS011;37253;48.736;9.294;2024-01-06T07:22:07;0.30;;;0.30;;
51190;SDS011;37253;48.736;9.294;2024-01-06T07:24:08;1.10;;;0.40;;
51190;SDS011;37253;48.736;9.294;2024-01-06T07:26:08;4.28;;;0.40;;
51190;SDS011;37253;48.736;9.294;2024-01-06T07:28:08;0.82;;;0.50;;
51190;SDS011;37253;48.736;9.294;2024-01-06T07:30:09;0.85;;;0.60;;
51190;SDS011;37253;48.736;9.294;2024-01-06T07:32:10;0.82;;;0.50;;
51190;SDS011;37253;48.736;9.294;2024-01-06T07:34:10;0.60;;;0.43;;
51190;SDS011;37253;48.736;9.294;2024-01-06T07:36:10;0.80;;;0.40;;
51190;SDS011;37253;48.736;9.294;2024-01-06T07:38:11;0.60;;;0.30;;
51190;SDS011;37253;48.736;9.294;2024-01-06T07:40:11;2.17;;;0.45;;
51190;SDS011;37253;48.736;9.294;2024-01-06T07:42:13;2.10;;;0.47;;
51190;SDS011;37253;48.736;9.294;2024-01-06T07:44:13;1.10;;;0.55;;
51190;SDS011;37253;48.736;9.294;2024-01-06T07:46:15;1.17;;;0.50;;
51190;SDS011;37253;48.736;9.294;2024-01-06T07:48:16;0.82;;;0.45;;
51190;SDS011;37253;48.736;9.294;2024-01-06T07:50:17;0.85;;;0.47;;
51190;SDS011;37253;48.736;9.294;2024-01-06T07:52:17;2.35;;;0.50;;
51190;SDS011;37253;48.736;9.294;2024-01-06T07:54:17;2.47;;;0.40;;
51190;SDS011;37253;48.736;9.294;2024-01-06T07:56:18;0.80;;;0.40;;
51190;SDS011;37253;48.736;9.294;2024-01-06T07:58:18;0.77;;;0.40;;
51190;SDS011;37253;48.736;9.294;2024-01-06T08:00:18;1.98;;;0.43;;
51190;SDS011;37253;48.736;9.294;2024-01-06T08:02:19;0.40;;;0.32;;
51190;SDS011;37253;48.736;9.294;2024-01-06T08:04:19;1.35;;;0.57;;
51190;SDS011;37253;48.736;9.294;2024-01-06T08:06:19;1.20;;;0.40;;
51190;SDS011;37253;48.736;9.294;2024-01-06T08:08:20;2.10;;;0.40;;
51190;SDS011;37253;48.736;9.294;2024-01-06T08:10:20;2.05;;;0.40;;
51190;SDS011;37253;48.736;9.294;2024-01-06T08:12:20;2.25;;;0.60;;
51190;SDS011;37253;48.736;9.294;2024-01-06T08:14:21;0.65;;;0.50;;
51190;SDS011;37253;48.736;9.294;2024-01-06T08:16:21;0.30;;;0.30;;
51190;SDS011;37253;48.736;9.294;2024-01-06T08:18:21;1.75;;;0.50;;
51190;SDS011;37253;48.736;9.294;2024-01-06T08:20:22;1.50;;;0.47;;
51190;SDS011;37253;48.736;9.294;2024-01-06T08:22:22;1.23;;;0.40;;
51190;SDS011;37253;48.736;9.294;2024-01-06T08:24:23;2.40;;;0.50;;
51190;SDS011;37253;48.736;9.294;2024-01-06T08:26:23;1.10;;;0.40;;
51190;SDS011;37253;48.736;9.294;2024-01-06T08:28:23;1.73;;;0.50;;
51190;SDS011;37253;48.736;9.294;2024-01-06T08:30:23;0.45;;;0.35;;
51190;SDS011;37253;48.736;9.294;2024-01-06T08:32:24;2.33;;;0.60;;
51190;SDS011;37253;48.736;9.294;2024-01-06T08:34:24;1.13;;;0.40;;
51190;SDS011;37253;48.736;9.294;2024-01-06T08:36:24;0.80;;;0.40;;
51190;SDS011;37253;48.736;9.294;2024-01-06T08:38:25;1.90;;;0.63;;
51190;SDS011;37253;48.736;9.294;2024-01-06T08:40:25;0.68;;;0.40;;
51190;SDS011;37253;48.736;9.294;2024-01-06T08:42:25;4.13;;;0.47;;
51190;SDS011;37253;48.736;9.294;2024-01-06T08:44:26;0.77;;;0.50;;
51190;SDS011;37253;48.736;9.294;2024-01-06T08:46:26;0.75;;;0.50;;
51190;SDS011;37253;48.736;9.294;2024-01-06T08:48:26;0.80;;;0.32;;
51190;SDS011;37253;48.736;9.294;2024-01-06T08:50:27;0.90;;;0.68;;
51190;SDS011;37253;48.736;9.294;2024-01-06T08:52:27;1.70;;;0.50;;
51190;SDS011;37253;48.736;9.294;2024-01-06T08:54:27;2.70;;;0.50;;
51190;SDS011;37253;48.736;9.294;2024-01-06T08:56:28;1.23;;;0.70;;
51190;SDS011;37253;48.736;9.294;2024-01-06T08:58:28;1.33;;;0.45;;
51190;SDS011;37253;48.736;9.294;2024-01-06T09:00:28;0.63;;;0.50;;
51190;SDS011;37253;48.736;9.294;2024-01-06T09:02:29;2.20;;;0.40;;
51190;SDS011;37253;48.736;9.294;2024-01-06T09:04:29;2.35;;;0.60;;
51190;SDS011;37253;48.736;9.294;2024-01-06T09:06:30;2.60;;;0.50;;
51190;SDS011;37253;48.736;9.294;2024-01-06T09:08:31;1.45;;;0.60;;
51190;SDS011;37253;48.736;9.294;2024-01-06T09:10:31;1.08;;;0.50;;
51190;SDS011;37253;48.736;9.294;2024-01-06T09:12:31;2.35;;;0.47;;
51190;SDS011;37253;48.736;9.294;2024-01-06T09:14:32;0.45;;;0.43;;
51190;SDS011;37253;48.736;9.294;2024-01-06T09:16:32;0.60;;;0.45;;
51190;SDS011;37253;48.736;9.294;2024-01-06T09:18:32;1.23;;;0.38;;
51190;SDS011;37253;48.736;9.294;2024-01-06T09:20:33;0.77;;;0.50;;
51190;SDS011;37253;48.736;9.294;2024-01-06T09:22:33;0.93;;;0.40;;
51190;SDS011;37253;48.736;9.294;2024-01-06T09:24:33;2.35;;;0.40;;
51190;SDS011;37253;48.736;9.294;2024-01-06T09:26:34;1.50;;;0.47;;
51190;SDS011;37253;48.736;9.294;2024-01-06T09:28:34;0.95;;;0.60;;
51190;SDS011;37253;48.736;9.294;2024-01-06T09:30:34;1.50;;;0.47;;
51190;SDS011;37253;48.736;9.294;2024-01-06T09:32:35;1.23;;;0.40;;
51190;SDS011;37253;48.736;9.294;2024-01-06T09:34:35;1.50;;;0.40;;
51190;SDS011;37253;48.736;9.294;2024-01-06T09:36:35;3.90;;;0.57;;
51190;SDS011;37253;48.736;9.294;2024-01-06T09:38:36;0.98;;;0.60;;
51190;SDS011;37253;48.736;9.294;2024-01-06T09:40:38;0.85;;;0.40;;
51190;SDS011;37253;48.736;9.294;2024-01-06T09:42:43;1.70;;;0.40;;
51190;SDS011;37253;48.736;9.294;2024-01-06T09:44:43;1.60;;;0.52;;
51190;SDS011;37253;48.736;9.294;2024-01-06T09:46:43;2.38;;;0.55;;
51190;SDS011;37253;48.736;9.294;2024-01-06T09:48:44;1.60;;;0.50;;
51190;SDS011;37253;48.736;9.294;2024-01-06T09:50:45;3.20;;;0.47;;
51190;SDS011;37253;48.736;9.294;2024-01-06T09:52:46;1.50;;;0.50;;
51190;SDS011;37253;48.736;9.294;2024-01-06T09:54:55;0.70;;;0.52;;
51190;SDS011;37253;48.736;9.294;2024-01-06T09:56:56;2.17;;;0.38;;
51190;SDS011;37253;48.736;9.294;2024-01-06T09:58:56;1.08;;;0.50;;
51190;SDS011;37253;48.736;9.294;2024-01-06T10:00:57;0.60;;;0.40;;
51190;SDS011;37253;48.736;9.294;2024-01-06T10:02:58;1.02;;;0.40;;
51190;SDS011;37253;48.736;9.294;2024-01-06T10:04:58;1.17;;;0.50;;
51190;SDS011;37253;48.736;9.294;2024-01-06T10:06:59;0.77;;;0.50;;
51190;SDS011;37253;48.736;9.294;2024-01-06T10:08:59;0.75;;;0.40;;
51190;SDS011;37253;48.736;9.294;2024-01-06T10:10:59;0.70;;;0.30;;
51190;SDS011;37253;48.736;9.294;2024-01-06T10:13:00;0.88;;;0.50;;
51190;SDS011;37253;48.736;9.294;2024-01-06T10:15:01;0.60;;;0.40;;
51190;SDS011;37253;48.736;9.294;2024-01-06T10:17:05;0.50;;;0.38;;
51190;SDS011;37253;48.736;9.294;2024-01-06T10:19:06;0.40;;;0.32;;
51190;SDS011;37253;48.736;9.294;2024-01-06T10:21:06;0.47;;;0.40;;
51190;SDS011;37253;48.736;9.294;2024-01-06T10:23:07;1.02;;;0.40;;
51190;SDS011;37253;48.736;9.294;2024-01-06T10:25:07;0.60;;;0.40;;
51190;SDS011;37253;48.736;9.294;2024-01-06T10:27:08;0.93;;;0.30;;
51190;SDS011;37253;48.736;9.294;2024-01-06T10:29:09;0.65;;;0.40;;
51190;SDS011;37253;48.736;9.294;2024-01-06T10:31:09;1.48;;;0.40;;
51190;SDS011;37253;48.736;9.294;2024-01-06T10:33:10;0.77;;;0.40;;
51190;SDS011;37253;48.736;9.294;2024-01-06T10:35:10;0.70;;;0.40;;
51190;SDS011;37253;48.736;9.294;2024-01-06T10:37:11;0.68;;;0.40;;
51190;SDS011;37253;48.736;9.294;2024-01-06T10:39:11;1.00;;;0.38;;
51190;SDS011;37253;48.736;9.294;2024-01-06T10:41:16;1.55;;;0.40;;
51190;SDS011;37253;48.736;9.294;2024-01-06T10:43:16;1.15;;;0.40;;
51190;SDS011;37253;48.736;9.294;2024-01-06T10:45:17;0.43;;;0.30;;
51190;SDS011;37253;48.736;9.294;2024-01-06T10:47:17;1.20;;;0.40;;
51190;SDS011;37253;48.736;9.294;2024-01-06T10:49:18;2.35;;;0.50;;
51190;SDS011;37253;48.736;9.294;2024-01-06T10:51:21;1.42;;;0.40;;
51190;SDS011;37253;48.736;9.294;2024-01-06T10:53:23;1.10;;;0.50;;
51190;SDS011;37253;48.736;9.294;2024-01-06T10:55:24;0.50;;;0.40;;
51190;SDS011;37253;48.736;9.294;2024-01-06T10:57:25;0.82;;;0.40;;
51190;SDS011;37253;48.736;9.294;2024-01-06T10:59:28;1.00;;;0.40;;
51190;SDS011;37253;48.736;9.294;2024-01-06T11:01:29;0.73;;;0.40;;
51190;SDS011;37253;48.736;9.294;2024-01-06T11:03:30;2.35;;;0.30;;
51190;SDS011;37253;48.736;9.294;2024-01-06T11:05:30;0.47;;;0.30;;
51190;SDS011;37253;48.736;9.294;2024-01-06T11:07:31;3.85;;;0.38;;
51190;SDS011;37253;48.736;9.294;2024-01-06T11:09:32;2.95;;;0.30;;
51190;SDS011;37253;48.736;9.294;2024-01-06T11:11:35;2.97;;;0.30;;
51190;SDS011;37253;48.736;9.294;2024-01-06T11:13:37;0.38;;;0.30;;
51190;SDS011;37253;48.736;9.294;2024-01-06T11:15:39;3.67;;;0.50;;
51190;SDS011;37253;48.736;9.294;2024-01-06T11:17:54;0.82;;;0.40;;
51190;SDS011;37253;48.736;9.294;2024-01-06T11:20:04;6.22;;;0.40;;
51190;SDS011;37253;48.736;9.294;2024-01-06T11:24:20;3.33;;;0.52;;
51190;SDS011;37253;48.736;9.294;2024-01-06T11:26:26;0.68;;;0.47;;
51190;SDS011;37253;48.736;9.294;2024-01-06T11:28:27;1.52;;;0.47;;
51190;SDS011;37253;48.736;9.294;2024-01-06T11:30:27;3.53;;;0.45;;
51190;SDS011;37253;48.736;9.294;2024-01-06T11:32:36;144.75;;;43.03;;
51190;SDS011;37253;48.736;9.294;2024-01-06T11:34:39;45.95;;;14.73;;
51190;SDS011;37253;48.736;9.294;2024-01-06T11:36:40;65.05;;;19.02;;
51190;SDS011;37253;48.736;9.294;2024-01-06T11:38:40;117.80;;;42.00;;
51190;SDS011;37253;48.736;9.294;2024-01-06T11:40:41;48.83;;;18.02;;
51190;SDS011;37253;48.736;9.294;2024-01-06T11:42:42;44.72;;;16.00;;
51190;SDS011;37253;48.736;9.294;2024-01-06T11:44:43;46.55;;;15.18;;
51190;SDS011;37253;48.736;9.294;2024-01-06T11:46:45;39.83;;;11.65;;
51190;SDS011;37253;48.736;9.294;2024-01-06T11:48:45;40.90;;;12.82;;
51190;SDS011;37253;48.736;9.294;2024-01-06T11:50:50;31.75;;;10.73;;
51190;SDS011;37253;48.736;9.294;2024-01-06T11:52:51;23.45;;;7.55;;
51190;SDS011;37253;48.736;9.294;2024-01-06T11:54:55;26.38;;;8.80;;
51190;SDS011;37253;48.736;9.294;2024-01-06T11:56:55;27.45;;;8.70;;
51190;SDS011;37253;48.736;9.294;2024-01-06T11:58:57;23.67;;;7.50;;
51190;SDS011;37253;48.736;9.294;2024-01-06T12:00:57;24.52;;;7.22;;
51190;SDS011;37253;48.736;9.294;2024-01-06T12:02:58;19.80;;;6.63;;
51190;SDS011;37253;48.736;9.294;2024-01-06T12:05:00;18.55;;;5.78;;
51190;SDS011;37253;48.736;9.294;2024-01-06T12:07:07;15.88;;;5.13;;